sensor_id;sensor_type;location;lat;lon;timestamp;temperature;humidity
33095;DHT22;19459;53.044;8.910;2023-04-15T00:01:29;6.50;99.90
33095;DHT22;19459;53.044;8.910;2023-04-15T00:03:58;6.50;99.90
33095;DHT22;19459;53.044;8.910;2023-04-15T00:06:24;6.50;99.90
33095;DHT22;19459;53.044;8.910;2023-04-15T00:08:50;6.60;99.90
33095;DHT22;19459;53.044;8.910;2023-04-15T00:11:16;6.60;99.90
33095;DHT22;19459;53.044;8.910;2023-04-15T00:13:43;6.60;99.90
33095;DHT22;19459;53.044;8.910;2023-04-15T00:16:09;6.60;99.90
33095;DHT22;19459;53.044;8.910;2023-04-15T00:18:35;6.70;99.90
33095;DHT22;19459;53.044;8.910;2023-04-15T00:21:02;6.70;99.90
33095;DHT22;19459;53.044;8.910;2023-04-15T00:23:29;6.70;99.90
33095;DHT22;19459;53.044;8.910;2023-04-15T00:25:55;6.80;99.90
33095;DHT22;19459;53.044;8.910;2023-04-15T00:28:21;6.80;99.90
33095;DHT22;19459;53.044;8.910;2023-04-15T00:30:46;6.90;99.90
33095;DHT22;19459;53.044;8.910;2023-04-15T00:33:13;6.90;99.90
33095;DHT22;19459;53.044;8.910;2023-04-15T00:35:39;6.90;99.90
33095;DHT22;19459;53.044;8.910;2023-04-15T00:38:05;6.90;99.90
33095;DHT22;19459;53.044;8.910;2023-04-15T00:40:32;6.90;99.90
33095;DHT22;19459;53.044;8.910;2023-04-15T00:42:59;6.90;99.90
33095;DHT22;19459;53.044;8.910;2023-04-15T00:45:26;7.00;99.90
33095;DHT22;19459;53.044;8.910;2023-04-15T00:47:54;7.00;99.90
33095;DHT22;19459;53.044;8.910;2023-04-15T00:50:21;7.00;99.90
33095;DHT22;19459;53.044;8.910;2023-04-15T00:52:47;7.00;99.90
33095;DHT22;19459;53.044;8.910;2023-04-15T00:55:13;7.00;99.90
33095;DHT22;19459;53.044;8.910;2023-04-15T00:57:39;7.10;99.90
33095;DHT22;19459;53.044;8.910;2023-04-15T01:00:06;7.10;99.90
33095;DHT22;19459;53.044;8.910;2023-04-15T01:02:34;7.10;99.90
33095;DHT22;19459;53.044;8.910;2023-04-15T01:05:01;7.10;99.90
33095;DHT22;19459;53.044;8.910;2023-04-15T01:07:28;7.10;99.90
33095;DHT22;19459;53.044;8.910;2023-04-15T01:09:54;7.10;99.90
33095;DHT22;19459;53.044;8.910;2023-04-15T01:12:20;7.10;99.90
33095;DHT22;19459;53.044;8.910;2023-04-15T01:14:46;7.10;99.90
33095;DHT22;19459;53.044;8.910;2023-04-15T01:17:12;7.20;99.90
33095;DHT22;19459;53.044;8.910;2023-04-15T01:19:37;7.20;99.90
33095;DHT22;19459;53.044;8.910;2023-04-15T01:22:04;7.20;99.90
33095;DHT22;19459;53.044;8.910;2023-04-15T01:24:31;7.20;99.90
33095;DHT22;19459;53.044;8.910;2023-04-15T01:27:00;7.20;99.90
33095;DHT22;19459;53.044;8.910;2023-04-15T01:29:26;7.20;99.90
33095;DHT22;19459;53.044;8.910;2023-04-15T01:31:53;7.20;99.90
33095;DHT22;19459;53.044;8.910;2023-04-15T01:34:20;7.20;99.90
33095;DHT22;19459;53.044;8.910;2023-04-15T01:36:47;7.20;99.90
33095;DHT22;19459;53.044;8.910;2023-04-15T01:39:13;7.20;99.90
33095;DHT22;19459;53.044;8.910;2023-04-15T01:41:39;7.20;99.90
33095;DHT22;19459;53.044;8.910;2023-04-15T01:44:06;7.20;99.90
33095;DHT22;19459;53.044;8.910;2023-04-15T01:46:33;7.20;99.90
33095;DHT22;19459;53.044;8.910;2023-04-15T01:48:59;7.20;99.90
33095;DHT22;19459;53.044;8.910;2023-04-15T01:51:25;7.20;99.90
33095;DHT22;19459;53.044;8.910;2023-04-15T01:53:51;7.20;99.90
33095;DHT22;19459;53.044;8.910;2023-04-15T01:56:17;7.20;99.90
33095;DHT22;19459;53.044;8.910;2023-04-15T01:58:43;7.20;99.90
33095;DHT22;19459;53.044;8.910;2023-04-15T02:01:09;7.20;99.90
33095;DHT22;19459;53.044;8.910;2023-04-15T02:03:36;7.30;99.90
33095;DHT22;19459;53.044;8.910;2023-04-15T02:06:03;7.30;99.90
33095;DHT22;19459;53.044;8.910;2023-04-15T02:08:30;7.30;99.90
33095;DHT22;19459;53.044;8.910;2023-04-15T02:10:56;7.30;99.90
33095;DHT22;19459;53.044;8.910;2023-04-15T02:13:22;7.30;99.90
33095;DHT22;19459;53.044;8.910;2023-04-15T02:15:48;7.30;99.90
33095;DHT22;19459;53.044;8.910;2023-04-15T02:18:15;7.30;99.90
33095;DHT22;19459;53.044;8.910;2023-04-15T02:20:41;7.30;99.90
33095;DHT22;19459;53.044;8.910;2023-04-15T02:23:08;7.30;99.90
33095;DHT22;19459;53.044;8.910;2023-04-15T02:25:35;7.30;99.90
33095;DHT22;19459;53.044;8.910;2023-04-15T02:28:03;7.30;99.90
33095;DHT22;19459;53.044;8.910;2023-04-15T02:30:29;7.30;99.90
33095;DHT22;19459;53.044;8.910;2023-04-15T02:32:55;7.40;99.90
33095;DHT22;19459;53.044;8.910;2023-04-15T02:35:21;7.40;99.90
33095;DHT22;19459;53.044;8.910;2023-04-15T02:37:47;7.30;99.90
33095;DHT22;19459;53.044;8.910;2023-04-15T02:40:12;7.40;99.90
33095;DHT22;19459;53.044;8.910;2023-04-15T02:42:39;7.40;99.90
33095;DHT22;19459;53.044;8.910;2023-04-15T02:45:06;7.30;99.90
33095;DHT22;19459;53.044;8.910;2023-04-15T02:47:33;7.30;99.90
33095;DHT22;19459;53.044;8.910;2023-04-15T02:50:03;7.40;99.90
33095;DHT22;19459;53.044;8.910;2023-04-15T02:52:29;7.40;99.90
33095;DHT22;19459;53.044;8.910;2023-04-15T02:54:55;7.40;99.90
33095;DHT22;19459;53.044;8.910;2023-04-15T02:57:26;7.40;99.90
33095;DHT22;19459;53.044;8.910;2023-04-15T02:59:53;7.30;99.90
33095;DHT22;19459;53.044;8.910;2023-04-15T03:02:19;7.40;99.90
33095;DHT22;19459;53.044;8.910;2023-04-15T03:04:44;7.30;99.90
33095;DHT22;19459;53.044;8.910;2023-04-15T03:07:10;7.30;99.90
33095;DHT22;19459;53.044;8.910;2023-04-15T03:09:36;7.40;99.90
33095;DHT22;19459;53.044;8.910;2023-04-15T03:12:04;7.40;99.90
33095;DHT22;19459;53.044;8.910;2023-04-15T03:14:30;7.40;99.90
33095;DHT22;19459;53.044;8.910;2023-04-15T03:16:56;7.40;99.90
33095;DHT22;19459;53.044;8.910;2023-04-15T03:19:24;7.40;99.90
33095;DHT22;19459;53.044;8.910;2023-04-15T03:21:50;7.40;99.90
33095;DHT22;19459;53.044;8.910;2023-04-15T03:24:16;7.40;99.90
33095;DHT22;19459;53.044;8.910;2023-04-15T03:26:42;7.40;99.90
33095;DHT22;19459;53.044;8.910;2023-04-15T03:29:08;7.40;99.90
33095;DHT22;19459;53.044;8.910;2023-04-15T03:31:34;7.40;99.90
33095;DHT22;19459;53.044;8.910;2023-04-15T03:33:59;7.50;99.90
33095;DHT22;19459;53.044;8.910;2023-04-15T03:36:28;7.40;99.90
33095;DHT22;19459;53.044;8.910;2023-04-15T03:38:54;7.40;99.90
33095;DHT22;19459;53.044;8.910;2023-04-15T03:41:21;7.40;99.90
33095;DHT22;19459;53.044;8.910;2023-04-15T03:43:46;7.50;99.90
33095;DHT22;19459;53.044;8.910;2023-04-15T03:46:12;7.40;99.90
33095;DHT22;19459;53.044;8.910;2023-04-15T03:48:38;7.50;99.90
33095;DHT22;19459;53.044;8.910;2023-04-15T03:51:04;7.40;99.90
33095;DHT22;19459;53.044;8.910;2023-04-15T03:53:30;7.50;99.90
33095;DHT22;19459;53.044;8.910;2023-04-15T03:55:55;7.50;99.90
33095;DHT22;19459;53.044;8.910;2023-04-15T03:58:21;7.50;99.90
33095;DHT22;19459;53.044;8.910;2023-04-15T04:00:47;7.50;99.90
33095;DHT22;19459;53.044;8.910;2023-04-15T04:03:13;7.50;99.90
33095;DHT22;19459;53.044;8.910;2023-04-15T04:05:39;7.50;99.90
33095;DHT22;19459;53.044;8.910;2023-04-15T04:08:06;7.50;99.90
33095;DHT22;19459;53.044;8.910;2023-04-15T04:10:31;7.50;99.90
33095;DHT22;19459;53.044;8.910;2023-04-15T04:12:57;7.60;99.90
33095;DHT22;19459;53.044;8.910;2023-04-15T04:15:23;7.50;99.90
33095;DHT22;19459;53.044;8.910;2023-04-15T04:17:49;7.50;99.90
33095;DHT22;19459;53.044;8.910;2023-04-15T04:20:15;7.60;99.90
33095;DHT22;19459;53.044;8.910;2023-04-15T04:22:42;7.60;99.90
33095;DHT22;19459;53.044;8.910;2023-04-15T04:25:08;7.60;99.90
33095;DHT22;19459;53.044;8.910;2023-04-15T04:27:37;7.50;99.90
33095;DHT22;19459;53.044;8.910;2023-04-15T04:30:04;7.60;99.90
33095;DHT22;19459;53.044;8.910;2023-04-15T04:32:34;7.60;99.90
33095;DHT22;19459;53.044;8.910;2023-04-15T04:35:00;7.60;99.90
33095;DHT22;19459;53.044;8.910;2023-04-15T04:37:26;7.60;99.90
33095;DHT22;19459;53.044;8.910;2023-04-15T04:39:52;7.60;99.90
33095;DHT22;19459;53.044;8.910;2023-04-15T04:42:17;7.60;99.90
33095;DHT22;19459;53.044;8.910;2023-04-15T04:44:43;7.60;99.90
33095;DHT22;19459;53.044;8.910;2023-04-15T04:47:09;7.60;99.90
33095;DHT22;19459;53.044;8.910;2023-04-15T04:49:35;7.60;99.90
33095;DHT22;19459;53.044;8.910;2023-04-15T04:52:02;7.60;99.90
33095;DHT22;19459;53.044;8.910;2023-04-15T04:54:27;7.60;99.90
33095;DHT22;19459;53.044;8.910;2023-04-15T04:56:55;7.70;99.90
33095;DHT22;19459;53.044;8.910;2023-04-15T04:59:22;7.70;99.90
33095;DHT22;19459;53.044;8.910;2023-04-15T05:01:48;7.70;99.90
33095;DHT22;19459;53.044;8.910;2023-04-15T05:04:14;7.70;99.90
33095;DHT22;19459;53.044;8.910;2023-04-15T05:06:40;7.70;99.90
33095;DHT22;19459;53.044;8.910;2023-04-15T05:09:06;7.70;99.90
33095;DHT22;19459;53.044;8.910;2023-04-15T05:11:32;7.70;99.90
33095;DHT22;19459;53.044;8.910;2023-04-15T05:13:58;7.70;99.90
33095;DHT22;19459;53.044;8.910;2023-04-15T05:16:27;7.70;99.90
33095;DHT22;19459;53.044;8.910;2023-04-15T05:18:53;7.70;99.90
33095;DHT22;19459;53.044;8.910;2023-04-15T05:21:19;7.70;99.90
33095;DHT22;19459;53.044;8.910;2023-04-15T05:23:45;7.70;99.90
33095;DHT22;19459;53.044;8.910;2023-04-15T05:26:11;7.70;99.90
33095;DHT22;19459;53.044;8.910;2023-04-15T05:28:37;7.70;99.90
33095;DHT22;19459;53.044;8.910;2023-04-15T05:31:03;7.70;99.90
33095;DHT22;19459;53.044;8.910;2023-04-15T05:33:28;7.70;99.90
33095;DHT22;19459;53.044;8.910;2023-04-15T05:35:54;7.70;99.90
33095;DHT22;19459;53.044;8.910;2023-04-15T05:38:20;7.80;99.90
33095;DHT22;19459;53.044;8.910;2023-04-15T05:40:46;7.80;99.90
33095;DHT22;19459;53.044;8.910;2023-04-15T05:43:12;7.70;99.90
33095;DHT22;19459;53.044;8.910;2023-04-15T05:45:37;7.80;99.90
33095;DHT22;19459;53.044;8.910;2023-04-15T05:48:03;7.80;99.90
33095;DHT22;19459;53.044;8.910;2023-04-15T05:50:29;7.80;99.90
33095;DHT22;19459;53.044;8.910;2023-04-15T05:52:55;7.80;99.90
33095;DHT22;19459;53.044;8.910;2023-04-15T05:55:21;7.80;99.90
33095;DHT22;19459;53.044;8.910;2023-04-15T05:57:46;7.80;99.90
33095;DHT22;19459;53.044;8.910;2023-04-15T06:00:13;7.80;99.90
33095;DHT22;19459;53.044;8.910;2023-04-15T06:02:39;7.90;99.90
33095;DHT22;19459;53.044;8.910;2023-04-15T06:05:06;7.90;99.90
33095;DHT22;19459;53.044;8.910;2023-04-15T06:07:35;7.90;99.90
33095;DHT22;19459;53.044;8.910;2023-04-15T06:10:02;7.90;99.90
33095;DHT22;19459;53.044;8.910;2023-04-15T06:12:28;7.90;99.90
33095;DHT22;19459;53.044;8.910;2023-04-15T06:14:54;7.90;99.90
33095;DHT22;19459;53.044;8.910;2023-04-15T06:17:20;7.90;99.90
33095;DHT22;19459;53.044;8.910;2023-04-15T06:19:45;8.00;99.90
33095;DHT22;19459;53.044;8.910;2023-04-15T06:22:11;8.00;99.90
33095;DHT22;19459;53.044;8.910;2023-04-15T06:24:37;8.00;99.90
33095;DHT22;19459;53.044;8.910;2023-04-15T06:27:03;8.00;99.90
33095;DHT22;19459;53.044;8.910;2023-04-15T06:29:28;8.00;99.90
33095;DHT22;19459;53.044;8.910;2023-04-15T06:31:54;8.00;99.90
33095;DHT22;19459;53.044;8.910;2023-04-15T06:34:21;8.00;99.90
33095;DHT22;19459;53.044;8.910;2023-04-15T06:36:46;8.00;99.90
33095;DHT22;19459;53.044;8.910;2023-04-15T06:39:12;8.10;99.90
33095;DHT22;19459;53.044;8.910;2023-04-15T06:41:38;8.10;99.90
33095;DHT22;19459;53.044;8.910;2023-04-15T06:44:04;8.10;99.90
33095;DHT22;19459;53.044;8.910;2023-04-15T06:46:30;8.10;99.90
33095;DHT22;19459;53.044;8.910;2023-04-15T06:48:56;8.10;99.90
33095;DHT22;19459;53.044;8.910;2023-04-15T06:51:21;8.10;99.90
33095;DHT22;19459;53.044;8.910;2023-04-15T06:53:48;8.10;99.90
33095;DHT22;19459;53.044;8.910;2023-04-15T06:56:14;8.10;99.90
33095;DHT22;19459;53.044;8.910;2023-04-15T06:58:40;8.20;99.90
33095;DHT22;19459;53.044;8.910;2023-04-15T07:01:05;8.20;99.90
33095;DHT22;19459;53.044;8.910;2023-04-15T07:03:31;8.20;99.90
33095;DHT22;19459;53.044;8.910;2023-04-15T07:05:57;8.30;99.90
33095;DHT22;19459;53.044;8.910;2023-04-15T07:08:23;8.30;99.90
33095;DHT22;19459;53.044;8.910;2023-04-15T07:10:49;8.30;99.90
33095;DHT22;19459;53.044;8.910;2023-04-15T07:13:14;8.30;99.90
33095;DHT22;19459;53.044;8.910;2023-04-15T07:15:40;8.30;99.90
33095;DHT22;19459;53.044;8.910;2023-04-15T07:18:06;8.30;99.90
33095;DHT22;19459;53.044;8.910;2023-04-15T07:20:31;8.30;99.90
33095;DHT22;19459;53.044;8.910;2023-04-15T07:22:57;8.30;99.90
33095;DHT22;19459;53.044;8.910;2023-04-15T07:25:23;8.40;99.90
33095;DHT22;19459;53.044;8.910;2023-04-15T07:27:49;8.40;99.90
33095;DHT22;19459;53.044;8.910;2023-04-15T07:30:15;8.50;99.90
33095;DHT22;19459;53.044;8.910;2023-04-15T07:32:41;8.50;99.90
33095;DHT22;19459;53.044;8.910;2023-04-15T07:35:07;8.50;99.90
33095;DHT22;19459;53.044;8.910;2023-04-15T07:37:34;8.50;99.90
33095;DHT22;19459;53.044;8.910;2023-04-15T07:40:00;8.60;99.90
33095;DHT22;19459;53.044;8.910;2023-04-15T07:42:26;8.50;99.90
33095;DHT22;19459;53.044;8.910;2023-04-15T07:44:53;8.60;99.90
33095;DHT22;19459;53.044;8.910;2023-04-15T07:47:19;8.60;99.90
33095;DHT22;19459;53.044;8.910;2023-04-15T07:49:45;8.60;99.90
33095;DHT22;19459;53.044;8.910;2023-04-15T07:52:11;8.60;99.90
33095;DHT22;19459;53.044;8.910;2023-04-15T07:54:37;8.70;99.90
33095;DHT22;19459;53.044;8.910;2023-04-15T07:57:03;8.70;99.90
33095;DHT22;19459;53.044;8.910;2023-04-15T07:59:29;8.70;99.90
33095;DHT22;19459;53.044;8.910;2023-04-15T08:01:55;8.80;99.90
33095;DHT22;19459;53.044;8.910;2023-04-15T08:04:21;8.80;99.90
33095;DHT22;19459;53.044;8.910;2023-04-15T08:06:47;8.80;99.90
33095;DHT22;19459;53.044;8.910;2023-04-15T08:09:14;8.80;99.90
33095;DHT22;19459;53.044;8.910;2023-04-15T08:11:41;8.80;99.90
33095;DHT22;19459;53.044;8.910;2023-04-15T08:14:06;8.80;99.90
33095;DHT22;19459;53.044;8.910;2023-04-15T08:16:32;8.80;99.90
33095;DHT22;19459;53.044;8.910;2023-04-15T08:18:58;8.80;99.90
33095;DHT22;19459;53.044;8.910;2023-04-15T08:21:24;8.80;99.90
33095;DHT22;19459;53.044;8.910;2023-04-15T08:23:51;8.80;99.90
33095;DHT22;19459;53.044;8.910;2023-04-15T08:26:18;8.90;99.90
33095;DHT22;19459;53.044;8.910;2023-04-15T08:28:45;8.90;99.90
33095;DHT22;19459;53.044;8.910;2023-04-15T08:31:12;8.90;99.90
33095;DHT22;19459;53.044;8.910;2023-04-15T08:33:39;8.90;99.90
33095;DHT22;19459;53.044;8.910;2023-04-15T08:36:05;8.90;99.90
33095;DHT22;19459;53.044;8.910;2023-04-15T08:38:32;9.00;99.90
33095;DHT22;19459;53.044;8.910;2023-04-15T08:41:02;9.00;99.90
33095;DHT22;19459;53.044;8.910;2023-04-15T08:43:33;9.00;99.90
33095;DHT22;19459;53.044;8.910;2023-04-15T08:46:00;9.00;99.90
33095;DHT22;19459;53.044;8.910;2023-04-15T08:48:31;9.00;99.90
33095;DHT22;19459;53.044;8.910;2023-04-15T08:51:00;9.00;99.90
33095;DHT22;19459;53.044;8.910;2023-04-15T08:53:28;9.00;99.90
33095;DHT22;19459;53.044;8.910;2023-04-15T08:55:56;9.00;99.90
33095;DHT22;19459;53.044;8.910;2023-04-15T08:58:23;9.00;99.90
33095;DHT22;19459;53.044;8.910;2023-04-15T09:00:49;9.00;99.90
33095;DHT22;19459;53.044;8.910;2023-04-15T09:03:15;9.00;99.90
33095;DHT22;19459;53.044;8.910;2023-04-15T09:05:42;9.00;99.90
33095;DHT22;19459;53.044;8.910;2023-04-15T09:08:08;9.10;99.90
33095;DHT22;19459;53.044;8.910;2023-04-15T09:10:33;9.10;99.90
33095;DHT22;19459;53.044;8.910;2023-04-15T09:13:00;9.10;99.90
33095;DHT22;19459;53.044;8.910;2023-04-15T09:15:27;9.10;99.90
33095;DHT22;19459;53.044;8.910;2023-04-15T09:17:54;9.10;99.90
33095;DHT22;19459;53.044;8.910;2023-04-15T09:20:21;9.20;99.90
33095;DHT22;19459;53.044;8.910;2023-04-15T09:22:48;9.10;99.90
33095;DHT22;19459;53.044;8.910;2023-04-15T09:27:55;9.20;99.90
33095;DHT22;19459;53.044;8.910;2023-04-15T09:30:23;9.20;99.90
33095;DHT22;19459;53.044;8.910;2023-04-15T09:32:57;9.20;99.90
33095;DHT22;19459;53.044;8.910;2023-04-15T09:35:25;9.20;99.90
33095;DHT22;19459;53.044;8.910;2023-04-15T09:38:04;9.20;99.90
33095;DHT22;19459;53.044;8.910;2023-04-15T09:42:58;9.20;99.90
33095;DHT22;19459;53.044;8.910;2023-04-15T09:45:25;9.30;99.90
33095;DHT22;19459;53.044;8.910;2023-04-15T09:47:50;9.30;99.90
33095;DHT22;19459;53.044;8.910;2023-04-15T09:50:18;9.30;99.90
33095;DHT22;19459;53.044;8.910;2023-04-15T09:52:44;9.30;99.90
33095;DHT22;19459;53.044;8.910;2023-04-15T09:55:11;9.30;99.90
33095;DHT22;19459;53.044;8.910;2023-04-15T09:57:39;9.40;99.90
33095;DHT22;19459;53.044;8.910;2023-04-15T10:00:12;9.30;99.90
33095;DHT22;19459;53.044;8.910;2023-04-15T10:02:40;9.40;99.90
33095;DHT22;19459;53.044;8.910;2023-04-15T10:05:10;9.40;99.90
33095;DHT22;19459;53.044;8.910;2023-04-15T10:07:39;9.40;99.90
33095;DHT22;19459;53.044;8.910;2023-04-15T10:10:08;9.50;99.90
33095;DHT22;19459;53.044;8.910;2023-04-15T10:12:36;9.50;99.90
33095;DHT22;19459;53.044;8.910;2023-04-15T10:15:04;9.50;99.90
33095;DHT22;19459;53.044;8.910;2023-04-15T10:17:32;9.50;99.90
33095;DHT22;19459;53.044;8.910;2023-04-15T10:20:03;9.50;99.90
33095;DHT22;19459;53.044;8.910;2023-04-15T10:22:31;9.50;99.90
33095;DHT22;19459;53.044;8.910;2023-04-15T10:24:57;9.50;99.90
33095;DHT22;19459;53.044;8.910;2023-04-15T10:27:24;9.60;99.90
33095;DHT22;19459;53.044;8.910;2023-04-15T10:29:51;9.60;99.90
33095;DHT22;19459;53.044;8.910;2023-04-15T10:32:18;9.70;99.90
33095;DHT22;19459;53.044;8.910;2023-04-15T10:34:46;9.70;99.90
33095;DHT22;19459;53.044;8.910;2023-04-15T10:37:24;9.70;99.90
33095;DHT22;19459;53.044;8.910;2023-04-15T10:39:58;9.80;99.90
33095;DHT22;19459;53.044;8.910;2023-04-15T10:42:33;9.80;99.90
33095;DHT22;19459;53.044;8.910;2023-04-15T10:44:59;9.80;99.90
33095;DHT22;19459;53.044;8.910;2023-04-15T10:47:25;9.80;99.90
33095;DHT22;19459;53.044;8.910;2023-04-15T10:49:56;9.80;99.90
33095;DHT22;19459;53.044;8.910;2023-04-15T10:52:25;9.80;99.90
33095;DHT22;19459;53.044;8.910;2023-04-15T10:55:25;9.80;99.90
33095;DHT22;19459;53.044;8.910;2023-04-15T10:57:58;9.80;99.90
33095;DHT22;19459;53.044;8.910;2023-04-15T11:00:28;9.80;99.90
33095;DHT22;19459;53.044;8.910;2023-04-15T11:03:08;9.90;99.90
33095;DHT22;19459;53.044;8.910;2023-04-15T11:08:06;9.80;99.90
33095;DHT22;19459;53.044;8.910;2023-04-15T11:15:39;9.90;99.90
33095;DHT22;19459;53.044;8.910;2023-04-15T11:18:14;10.00;99.90
33095;DHT22;19459;53.044;8.910;2023-04-15T11:20:50;9.90;99.90
33095;DHT22;19459;53.044;8.910;2023-04-15T11:23:28;10.00;99.90
33095;DHT22;19459;53.044;8.910;2023-04-15T11:25:59;10.00;99.90
33095;DHT22;19459;53.044;8.910;2023-04-15T11:28:28;10.00;99.90
33095;DHT22;19459;53.044;8.910;2023-04-15T11:30:55;10.00;99.90
33095;DHT22;19459;53.044;8.910;2023-04-15T11:33:22;10.00;99.90
33095;DHT22;19459;53.044;8.910;2023-04-15T11:35:49;10.00;99.90
33095;DHT22;19459;53.044;8.910;2023-04-15T11:38:18;10.00;99.90
33095;DHT22;19459;53.044;8.910;2023-04-15T11:40:44;10.00;99.90
33095;DHT22;19459;53.044;8.910;2023-04-15T11:43:15;10.00;99.90
33095;DHT22;19459;53.044;8.910;2023-04-15T11:45:56;10.00;99.90
33095;DHT22;19459;53.044;8.910;2023-04-15T11:48:25;10.00;99.90
33095;DHT22;19459;53.044;8.910;2023-04-15T11:51:03;10.00;99.90
33095;DHT22;19459;53.044;8.910;2023-04-15T11:53:47;10.10;99.90
33095;DHT22;19459;53.044;8.910;2023-04-15T11:56:24;10.00;99.90
33095;DHT22;19459;53.044;8.910;2023-04-15T11:58:57;10.10;99.90
33095;DHT22;19459;53.044;8.910;2023-04-15T12:01:35;10.10;99.90
33095;DHT22;19459;53.044;8.910;2023-04-15T12:04:14;10.10;99.90
33095;DHT22;19459;53.044;8.910;2023-04-15T12:06:42;10.10;99.90
33095;DHT22;19459;53.044;8.910;2023-04-15T12:09:10;10.20;99.90
33095;DHT22;19459;53.044;8.910;2023-04-15T12:11:42;10.20;99.90
33095;DHT22;19459;53.044;8.910;2023-04-15T12:14:22;10.20;99.90
33095;DHT22;19459;53.044;8.910;2023-04-15T12:16:52;10.10;99.90
33095;DHT22;19459;53.044;8.910;2023-04-15T12:19:24;10.10;99.90
33095;DHT22;19459;53.044;8.910;2023-04-15T12:21:59;10.20;99.90
33095;DHT22;19459;53.044;8.910;2023-04-15T12:24:26;10.20;99.90
33095;DHT22;19459;53.044;8.910;2023-04-15T12:26:57;10.20;99.90
33095;DHT22;19459;53.044;8.910;2023-04-15T12:29:30;10.20;99.90
33095;DHT22;19459;53.044;8.910;2023-04-15T12:31:58;10.30;99.90
33095;DHT22;19459;53.044;8.910;2023-04-15T12:34:31;10.30;99.90
33095;DHT22;19459;53.044;8.910;2023-04-15T12:37:02;10.40;99.90
33095;DHT22;19459;53.044;8.910;2023-04-15T12:39:31;10.40;99.90
33095;DHT22;19459;53.044;8.910;2023-04-15T12:42:00;10.30;99.90
33095;DHT22;19459;53.044;8.910;2023-04-15T12:44:26;10.40;99.90
33095;DHT22;19459;53.044;8.910;2023-04-15T12:46:53;10.50;99.90
33095;DHT22;19459;53.044;8.910;2023-04-15T12:49:20;10.50;99.90
33095;DHT22;19459;53.044;8.910;2023-04-15T12:51:51;10.50;99.90
33095;DHT22;19459;53.044;8.910;2023-04-15T12:54:19;10.60;99.90
33095;DHT22;19459;53.044;8.910;2023-04-15T12:56:47;10.60;99.90
33095;DHT22;19459;53.044;8.910;2023-04-15T12:59:14;10.60;99.90
33095;DHT22;19459;53.044;8.910;2023-04-15T13:01:40;10.70;99.90
33095;DHT22;19459;53.044;8.910;2023-04-15T13:04:06;10.70;99.90
33095;DHT22;19459;53.044;8.910;2023-04-15T13:06:32;10.70;99.90
33095;DHT22;19459;53.044;8.910;2023-04-15T13:08:58;10.70;99.90
33095;DHT22;19459;53.044;8.910;2023-04-15T13:11:26;10.80;99.90
33095;DHT22;19459;53.044;8.910;2023-04-15T13:13:55;10.80;99.90
33095;DHT22;19459;53.044;8.910;2023-04-15T13:16:22;10.90;99.90
33095;DHT22;19459;53.044;8.910;2023-04-15T13:18:49;11.00;99.90
33095;DHT22;19459;53.044;8.910;2023-04-15T13:21:15;11.10;99.90
33095;DHT22;19459;53.044;8.910;2023-04-15T13:23:44;11.10;99.90
33095;DHT22;19459;53.044;8.910;2023-04-15T13:26:10;11.30;99.90
33095;DHT22;19459;53.044;8.910;2023-04-15T13:28:36;11.50;99.90
33095;DHT22;19459;53.044;8.910;2023-04-15T13:31:02;11.80;99.90
33095;DHT22;19459;53.044;8.910;2023-04-15T13:33:29;12.10;99.90
33095;DHT22;19459;53.044;8.910;2023-04-15T13:35:55;12.30;99.90
33095;DHT22;19459;53.044;8.910;2023-04-15T13:38:23;12.50;99.90
33095;DHT22;19459;53.044;8.910;2023-04-15T13:40:49;12.90;99.90
33095;DHT22;19459;53.044;8.910;2023-04-15T13:43:15;13.10;99.90
33095;DHT22;19459;53.044;8.910;2023-04-15T13:45:42;13.20;99.90
33095;DHT22;19459;53.044;8.910;2023-04-15T13:48:08;13.10;99.90
33095;DHT22;19459;53.044;8.910;2023-04-15T13:50:34;13.10;99.90
33095;DHT22;19459;53.044;8.910;2023-04-15T13:53:00;13.10;99.90
33095;DHT22;19459;53.044;8.910;2023-04-15T13:55:26;13.00;99.90
33095;DHT22;19459;53.044;8.910;2023-04-15T13:57:52;12.90;99.90
33095;DHT22;19459;53.044;8.910;2023-04-15T14:00:18;12.90;99.90
33095;DHT22;19459;53.044;8.910;2023-04-15T14:02:44;12.80;99.90
33095;DHT22;19459;53.044;8.910;2023-04-15T14:05:10;12.90;99.90
33095;DHT22;19459;53.044;8.910;2023-04-15T14:07:36;12.90;99.90
33095;DHT22;19459;53.044;8.910;2023-04-15T14:10:02;13.20;99.90
33095;DHT22;19459;53.044;8.910;2023-04-15T14:12:28;13.70;99.90
33095;DHT22;19459;53.044;8.910;2023-04-15T14:14:54;13.90;99.90
33095;DHT22;19459;53.044;8.910;2023-04-15T14:17:20;14.30;99.90
33095;DHT22;19459;53.044;8.910;2023-04-15T14:19:46;14.40;99.90
33095;DHT22;19459;53.044;8.910;2023-04-15T14:22:11;14.40;99.90
33095;DHT22;19459;53.044;8.910;2023-04-15T14:24:37;14.20;99.90
33095;DHT22;19459;53.044;8.910;2023-04-15T14:27:03;14.20;99.90
33095;DHT22;19459;53.044;8.910;2023-04-15T14:29:29;14.30;99.90
33095;DHT22;19459;53.044;8.910;2023-04-15T14:31:55;14.10;99.90
33095;DHT22;19459;53.044;8.910;2023-04-15T14:34:23;14.10;99.90
33095;DHT22;19459;53.044;8.910;2023-04-15T14:36:50;14.20;99.90
33095;DHT22;19459;53.044;8.910;2023-04-15T14:39:18;14.20;99.90
33095;DHT22;19459;53.044;8.910;2023-04-15T14:41:45;14.20;99.90
33095;DHT22;19459;53.044;8.910;2023-04-15T14:44:11;14.10;99.90
33095;DHT22;19459;53.044;8.910;2023-04-15T14:46:37;14.00;99.90
33095;DHT22;19459;53.044;8.910;2023-04-15T14:49:04;14.00;99.90
33095;DHT22;19459;53.044;8.910;2023-04-15T14:51:31;14.20;99.90
33095;DHT22;19459;53.044;8.910;2023-04-15T14:53:57;14.10;99.90
33095;DHT22;19459;53.044;8.910;2023-04-15T14:56:22;14.10;99.90
33095;DHT22;19459;53.044;8.910;2023-04-15T14:58:48;14.10;99.90
33095;DHT22;19459;53.044;8.910;2023-04-15T15:01:14;13.90;99.90
33095;DHT22;19459;53.044;8.910;2023-04-15T15:03:40;13.90;99.90
33095;DHT22;19459;53.044;8.910;2023-04-15T15:06:06;13.90;99.90
33095;DHT22;19459;53.044;8.910;2023-04-15T15:08:32;13.70;99.90
33095;DHT22;19459;53.044;8.910;2023-04-15T15:10:58;13.70;99.90
33095;DHT22;19459;53.044;8.910;2023-04-15T15:13:23;13.50;99.90
33095;DHT22;19459;53.044;8.910;2023-04-15T15:15:50;13.30;99.90
33095;DHT22;19459;53.044;8.910;2023-04-15T15:18:16;13.20;99.90
33095;DHT22;19459;53.044;8.910;2023-04-15T15:20:43;13.20;99.90
33095;DHT22;19459;53.044;8.910;2023-04-15T15:23:09;13.30;99.90
33095;DHT22;19459;53.044;8.910;2023-04-15T15:25:35;13.40;99.90
33095;DHT22;19459;53.044;8.910;2023-04-15T15:28:01;13.40;99.90
33095;DHT22;19459;53.044;8.910;2023-04-15T15:30:26;13.50;99.90
33095;DHT22;19459;53.044;8.910;2023-04-15T15:32:52;13.60;99.90
33095;DHT22;19459;53.044;8.910;2023-04-15T15:35:18;13.60;99.90
33095;DHT22;19459;53.044;8.910;2023-04-15T15:37:44;13.70;99.90
33095;DHT22;19459;53.044;8.910;2023-04-15T15:40:10;13.80;99.90
33095;DHT22;19459;53.044;8.910;2023-04-15T15:42:36;13.80;99.90
33095;DHT22;19459;53.044;8.910;2023-04-15T15:45:03;13.80;99.90
33095;DHT22;19459;53.044;8.910;2023-04-15T15:47:29;13.80;99.90
33095;DHT22;19459;53.044;8.910;2023-04-15T15:49:55;13.70;99.90
33095;DHT22;19459;53.044;8.910;2023-04-15T15:52:21;13.60;99.90
33095;DHT22;19459;53.044;8.910;2023-04-15T15:54:47;13.60;99.90